sensor_id;sensor_type;location;lat;lon;timestamp;P1;durP1;ratioP1;P2;durP2;ratioP2
52368;SDS011;38298;50.346;3.526;2023-08-06T00:00:27;9.10;;;1.92;;
52368;SDS011;38298;50.346;3.526;2023-08-06T00:02:53;6.35;;;1.45;;
52368;SDS011;38298;50.346;3.526;2023-08-06T00:05:19;4.93;;;1.38;;
52368;SDS011;38298;50.346;3.526;2023-08-06T00:07:48;2.33;;;1.40;;
52368;SDS011;38298;50.346;3.526;2023-08-06T00:10:14;6.47;;;1.40;;
52368;SDS011;38298;50.346;3.526;2023-08-06T00:12:40;4.40;;;1.05;;
52368;SDS011;38298;50.346;3.526;2023-08-06T00:15:06;3.05;;;1.00;;
52368;SDS011;38298;50.346;3.526;2023-08-06T00:17:33;4.65;;;1.48;;
52368;SDS011;38298;50.346;3.526;2023-08-06T00:19:59;6.65;;;1.45;;
52368;SDS011;38298;50.346;3.526;2023-08-06T00:22:30;4.50;;;1.23;;
52368;SDS011;38298;50.346;3.526;2023-08-06T00:24:56;3.42;;;1.20;;
52368;SDS011;38298;50.346;3.526;2023-08-06T00:27:22;3.63;;;1.40;;
52368;SDS011;38298;50.346;3.526;2023-08-06T00:29:48;3.35;;;1.48;;
52368;SDS011;38298;50.346;3.526;2023-08-06T00:32:14;3.50;;;0.95;;
52368;SDS011;38298;50.346;3.526;2023-08-06T00:34:40;4.32;;;1.00;;
52368;SDS011;38298;50.346;3.526;2023-08-06T00:37:06;3.03;;;0.98;;
52368;SDS011;38298;50.346;3.526;2023-08-06T00:39:32;4.80;;;1.05;;
52368;SDS011;38298;50.346;3.526;2023-08-06T00:41:58;3.35;;;0.90;;
52368;SDS011;38298;50.346;3.526;2023-08-06T00:44:24;5.05;;;1.13;;
52368;SDS011;38298;50.346;3.526;2023-08-06T00:46:50;6.00;;;1.00;;
52368;SDS011;38298;50.346;3.526;2023-08-06T00:49:16;6.45;;;0.90;;
52368;SDS011;38298;50.346;3.526;2023-08-06T00:51:42;4.75;;;0.82;;
52368;SDS011;38298;50.346;3.526;2023-08-06T00:54:09;6.65;;;1.85;;
52368;SDS011;38298;50.346;3.526;2023-08-06T00:56:35;5.15;;;0.77;;
52368;SDS011;38298;50.346;3.526;2023-08-06T00:59:03;7.90;;;1.10;;
52368;SDS011;38298;50.346;3.526;2023-08-06T01:01:29;6.22;;;1.10;;
52368;SDS011;38298;50.346;3.526;2023-08-06T01:03:55;2.38;;;0.63;;
52368;SDS011;38298;50.346;3.526;2023-08-06T01:06:27;6.93;;;1.10;;
52368;SDS011;38298;50.346;3.526;2023-08-06T01:08:58;6.20;;;0.93;;
52368;SDS011;38298;50.346;3.526;2023-08-06T01:13:59;6.07;;;0.90;;
52368;SDS011;38298;50.346;3.526;2023-08-06T01:16:28;10.32;;;0.90;;
52368;SDS011;38298;50.346;3.526;2023-08-06T01:18:54;3.17;;;0.90;;
52368;SDS011;38298;50.346;3.526;2023-08-06T01:21:20;4.82;;;1.02;;
52368;SDS011;38298;50.346;3.526;2023-08-06T01:23:46;9.10;;;1.33;;
52368;SDS011;38298;50.346;3.526;2023-08-06T01:26:35;1.92;;;1.00;;
52368;SDS011;38298;50.346;3.526;2023-08-06T01:31:30;5.15;;;1.20;;
52368;SDS011;38298;50.346;3.526;2023-08-06T01:33:57;6.00;;;1.30;;
52368;SDS011;38298;50.346;3.526;2023-08-06T01:36:24;5.50;;;1.17;;
52368;SDS011;38298;50.346;3.526;2023-08-06T01:38:53;5.18;;;1.38;;
52368;SDS011;38298;50.346;3.526;2023-08-06T01:41:19;6.43;;;1.30;;
52368;SDS011;38298;50.346;3.526;2023-08-06T01:43:45;8.50;;;1.42;;
52368;SDS011;38298;50.346;3.526;2023-08-06T01:46:11;5.93;;;1.27;;
52368;SDS011;38298;50.346;3.526;2023-08-06T01:48:37;10.40;;;1.45;;
52368;SDS011;38298;50.346;3.526;2023-08-06T01:51:04;3.78;;;1.13;;
52368;SDS011;38298;50.346;3.526;2023-08-06T01:53:30;5.55;;;1.55;;
52368;SDS011;38298;50.346;3.526;2023-08-06T01:55:57;4.07;;;1.23;;
52368;SDS011;38298;50.346;3.526;2023-08-06T01:58:23;7.18;;;1.40;;
52368;SDS011;38298;50.346;3.526;2023-08-06T02:00:49;8.57;;;1.60;;
52368;SDS011;38298;50.346;3.526;2023-08-06T02:03:15;6.25;;;1.58;;
52368;SDS011;38298;50.346;3.526;2023-08-06T02:05:41;6.40;;;1.40;;
52368;SDS011;38298;50.346;3.526;2023-08-06T02:08:07;4.68;;;1.27;;
52368;SDS011;38298;50.346;3.526;2023-08-06T02:10:33;6.25;;;1.20;;
52368;SDS011;38298;50.346;3.526;2023-08-06T02:12:59;8.40;;;1.58;;
52368;SDS011;38298;50.346;3.526;2023-08-06T02:15:25;4.30;;;1.77;;
52368;SDS011;38298;50.346;3.526;2023-08-06T02:17:51;6.30;;;1.50;;
52368;SDS011;38298;50.346;3.526;2023-08-06T02:20:17;2.53;;;1.17;;
52368;SDS011;38298;50.346;3.526;2023-08-06T02:22:43;4.13;;;1.35;;
52368;SDS011;38298;50.346;3.526;2023-08-06T02:25:09;4.53;;;1.60;;
52368;SDS011;38298;50.346;3.526;2023-08-06T02:27:35;8.77;;;1.25;;
52368;SDS011;38298;50.346;3.526;2023-08-06T02:30:01;4.50;;;1.27;;
52368;SDS011;38298;50.346;3.526;2023-08-06T02:32:28;5.78;;;1.40;;
52368;SDS011;38298;50.346;3.526;2023-08-06T02:34:56;4.00;;;1.20;;
52368;SDS011;38298;50.346;3.526;2023-08-06T02:37:22;4.93;;;1.20;;
52368;SDS011;38298;50.346;3.526;2023-08-06T02:39:48;3.15;;;1.20;;
52368;SDS011;38298;50.346;3.526;2023-08-06T02:42:14;2.80;;;1.10;;
52368;SDS011;38298;50.346;3.526;2023-08-06T02:44:40;2.60;;;1.02;;
52368;SDS011;38298;50.346;3.526;2023-08-06T02:47:06;2.63;;;1.17;;
52368;SDS011;38298;50.346;3.526;2023-08-06T02:49:32;4.68;;;1.15;;
52368;SDS011;38298;50.346;3.526;2023-08-06T02:51:58;3.45;;;1.10;;
52368;SDS011;38298;50.346;3.526;2023-08-06T02:54:24;3.05;;;1.35;;
52368;SDS011;38298;50.346;3.526;2023-08-06T02:56:50;4.95;;;1.13;;
52368;SDS011;38298;50.346;3.526;2023-08-06T02:59:16;3.00;;;1.30;;
52368;SDS011;38298;50.346;3.526;2023-08-06T03:01:42;3.17;;;1.00;;
52368;SDS011;38298;50.346;3.526;2023-08-06T03:04:08;5.57;;;1.40;;
52368;SDS011;38298;50.346;3.526;2023-08-06T03:06:34;4.85;;;1.52;;
52368;SDS011;38298;50.346;3.526;2023-08-06T03:09:00;5.05;;;1.63;;
52368;SDS011;38298;50.346;3.526;2023-08-06T03:11:26;8.40;;;1.35;;
52368;SDS011;38298;50.346;3.526;2023-08-06T03:13:52;5.72;;;1.70;;
52368;SDS011;38298;50.346;3.526;2023-08-06T03:16:18;2.95;;;1.60;;
52368;SDS011;38298;50.346;3.526;2023-08-06T03:18:44;5.75;;;1.63;;
52368;SDS011;38298;50.346;3.526;2023-08-06T03:21:10;4.50;;;1.65;;
52368;SDS011;38298;50.346;3.526;2023-08-06T03:23:36;6.78;;;2.13;;
52368;SDS011;38298;50.346;3.526;2023-08-06T03:26:02;8.07;;;2.08;;
52368;SDS011;38298;50.346;3.526;2023-08-06T03:28:28;3.80;;;1.70;;
52368;SDS011;38298;50.346;3.526;2023-08-06T03:31:00;10.30;;;2.10;;
52368;SDS011;38298;50.346;3.526;2023-08-06T03:33:26;5.72;;;2.40;;
52368;SDS011;38298;50.346;3.526;2023-08-06T03:35:52;7.35;;;2.10;;
52368;SDS011;38298;50.346;3.526;2023-08-06T03:38:18;8.68;;;2.58;;
52368;SDS011;38298;50.346;3.526;2023-08-06T03:40:45;9.32;;;2.60;;
52368;SDS011;38298;50.346;3.526;2023-08-06T03:43:11;8.50;;;2.75;;
52368;SDS011;38298;50.346;3.526;2023-08-06T03:45:37;8.32;;;2.92;;
52368;SDS011;38298;50.346;3.526;2023-08-06T03:48:03;7.50;;;2.50;;
52368;SDS011;38298;50.346;3.526;2023-08-06T03:50:30;6.30;;;2.40;;
52368;SDS011;38298;50.346;3.526;2023-08-06T03:52:56;8.15;;;3.22;;
52368;SDS011;38298;50.346;3.526;2023-08-06T03:55:22;9.88;;;3.00;;
52368;SDS011;38298;50.346;3.526;2023-08-06T03:57:47;7.63;;;2.78;;
52368;SDS011;38298;50.346;3.526;2023-08-06T04:00:13;14.27;;;3.35;;
52368;SDS011;38298;50.346;3.526;2023-08-06T04:02:40;13.82;;;3.55;;
52368;SDS011;38298;50.346;3.526;2023-08-06T04:05:06;9.82;;;3.30;;
52368;SDS011;38298;50.346;3.526;2023-08-06T04:07:32;9.93;;;3.00;;
52368;SDS011;38298;50.346;3.526;2023-08-06T04:09:59;9.70;;;3.30;;
52368;SDS011;38298;50.346;3.526;2023-08-06T04:12:25;15.63;;;2.85;;
52368;SDS011;38298;50.346;3.526;2023-08-06T04:14:51;7.38;;;2.90;;
52368;SDS011;38298;50.346;3.526;2023-08-06T04:17:18;10.10;;;2.80;;
52368;SDS011;38298;50.346;3.526;2023-08-06T04:19:47;12.55;;;3.22;;
52368;SDS011;38298;50.346;3.526;2023-08-06T04:22:16;12.07;;;3.15;;
52368;SDS011;38298;50.346;3.526;2023-08-06T04:24:43;10.23;;;3.00;;
52368;SDS011;38298;50.346;3.526;2023-08-06T04:27:12;8.02;;;3.00;;
52368;SDS011;38298;50.346;3.526;2023-08-06T04:29:39;10.13;;;3.30;;
52368;SDS011;38298;50.346;3.526;2023-08-06T04:32:05;11.63;;;3.03;;
52368;SDS011;38298;50.346;3.526;2023-08-06T04:34:32;9.07;;;3.22;;
52368;SDS011;38298;50.346;3.526;2023-08-06T04:36:58;8.00;;;2.92;;
52368;SDS011;38298;50.346;3.526;2023-08-06T04:39:24;5.93;;;2.63;;
52368;SDS011;38298;50.346;3.526;2023-08-06T04:41:50;8.20;;;2.55;;
52368;SDS011;38298;50.346;3.526;2023-08-06T04:44:16;11.88;;;3.78;;
52368;SDS011;38298;50.346;3.526;2023-08-06T04:46:42;9.93;;;2.67;;
52368;SDS011;38298;50.346;3.526;2023-08-06T04:49:08;6.07;;;2.67;;
52368;SDS011;38298;50.346;3.526;2023-08-06T04:51:34;11.23;;;2.50;;
52368;SDS011;38298;50.346;3.526;2023-08-06T04:54:00;14.35;;;2.60;;
52368;SDS011;38298;50.346;3.526;2023-08-06T04:56:26;11.48;;;2.90;;
52368;SDS011;38298;50.346;3.526;2023-08-06T04:58:52;9.93;;;2.60;;
52368;SDS011;38298;50.346;3.526;2023-08-06T05:01:18;13.73;;;2.40;;
52368;SDS011;38298;50.346;3.526;2023-08-06T05:03:44;6.95;;;2.60;;
52368;SDS011;38298;50.346;3.526;2023-08-06T05:06:10;8.27;;;2.20;;
52368;SDS011;38298;50.346;3.526;2023-08-06T05:08:36;6.53;;;2.47;;
52368;SDS011;38298;50.346;3.526;2023-08-06T05:11:02;9.00;;;2.00;;
52368;SDS011;38298;50.346;3.526;2023-08-06T05:13:28;7.40;;;1.98;;
52368;SDS011;38298;50.346;3.526;2023-08-06T05:15:54;8.50;;;2.47;;
52368;SDS011;38298;50.346;3.526;2023-08-06T05:18:20;9.50;;;2.38;;
52368;SDS011;38298;50.346;3.526;2023-08-06T05:20:47;8.98;;;2.28;;
52368;SDS011;38298;50.346;3.526;2023-08-06T05:23:13;8.25;;;2.55;;
52368;SDS011;38298;50.346;3.526;2023-08-06T05:25:39;11.73;;;2.22;;
52368;SDS011;38298;50.346;3.526;2023-08-06T05:28:05;7.50;;;2.05;;
52368;SDS011;38298;50.346;3.526;2023-08-06T05:30:31;8.30;;;2.53;;
52368;SDS011;38298;50.346;3.526;2023-08-06T05:32:57;5.47;;;1.67;;
52368;SDS011;38298;50.346;3.526;2023-08-06T05:35:23;11.18;;;2.63;;
52368;SDS011;38298;50.346;3.526;2023-08-06T05:37:52;11.07;;;2.25;;
52368;SDS011;38298;50.346;3.526;2023-08-06T05:40:18;9.88;;;2.05;;
52368;SDS011;38298;50.346;3.526;2023-08-06T05:42:44;7.57;;;2.30;;
52368;SDS011;38298;50.346;3.526;2023-08-06T05:45:10;7.30;;;2.38;;
52368;SDS011;38298;50.346;3.526;2023-08-06T05:47:36;4.07;;;1.45;;
52368;SDS011;38298;50.346;3.526;2023-08-06T05:50:02;8.07;;;2.28;;
52368;SDS011;38298;50.346;3.526;2023-08-06T05:52:28;7.80;;;2.00;;
52368;SDS011;38298;50.346;3.526;2023-08-06T05:54:54;7.40;;;2.00;;
52368;SDS011;38298;50.346;3.526;2023-08-06T05:57:20;5.25;;;1.70;;
52368;SDS011;38298;50.346;3.526;2023-08-06T05:59:46;3.40;;;1.80;;
52368;SDS011;38298;50.346;3.526;2023-08-06T06:02:12;4.53;;;1.98;;
52368;SDS011;38298;50.346;3.526;2023-08-06T06:04:40;8.10;;;1.98;;
52368;SDS011;38298;50.346;3.526;2023-08-06T06:07:06;9.70;;;2.53;;
52368;SDS011;38298;50.346;3.526;2023-08-06T06:09:32;7.13;;;1.95;;
52368;SDS011;38298;50.346;3.526;2023-08-06T06:11:58;5.65;;;2.40;;
52368;SDS011;38298;50.346;3.526;2023-08-06T06:14:24;6.20;;;2.00;;
52368;SDS011;38298;50.346;3.526;2023-08-06T06:16:50;8.93;;;1.80;;
52368;SDS011;38298;50.346;3.526;2023-08-06T06:19:18;5.65;;;1.67;;
52368;SDS011;38298;50.346;3.526;2023-08-06T06:21:44;9.27;;;1.77;;
52368;SDS011;38298;50.346;3.526;2023-08-06T06:24:10;8.20;;;1.58;;
52368;SDS011;38298;50.346;3.526;2023-08-06T06:26:35;6.10;;;1.90;;
52368;SDS011;38298;50.346;3.526;2023-08-06T06:29:01;13.57;;;3.25;;
52368;SDS011;38298;50.346;3.526;2023-08-06T06:31:28;6.50;;;1.83;;
52368;SDS011;38298;50.346;3.526;2023-08-06T06:33:54;6.90;;;1.95;;
52368;SDS011;38298;50.346;3.526;2023-08-06T06:36:20;6.25;;;1.67;;
52368;SDS011;38298;50.346;3.526;2023-08-06T06:38:46;5.78;;;1.55;;
52368;SDS011;38298;50.346;3.526;2023-08-06T06:41:14;6.38;;;1.85;;
52368;SDS011;38298;50.346;3.526;2023-08-06T06:43:40;10.00;;;2.20;;
52368;SDS011;38298;50.346;3.526;2023-08-06T06:46:06;10.43;;;1.95;;
52368;SDS011;38298;50.346;3.526;2023-08-06T06:48:33;11.40;;;2.28;;
52368;SDS011;38298;50.346;3.526;2023-08-06T06:50:59;11.25;;;2.17;;
52368;SDS011;38298;50.346;3.526;2023-08-06T06:53:25;8.10;;;2.35;;
52368;SDS011;38298;50.346;3.526;2023-08-06T06:55:54;6.05;;;2.17;;
52368;SDS011;38298;50.346;3.526;2023-08-06T06:58:20;8.10;;;2.20;;
52368;SDS011;38298;50.346;3.526;2023-08-06T07:00:46;3.53;;;2.25;;
52368;SDS011;38298;50.346;3.526;2023-08-06T07:03:13;7.60;;;2.28;;
52368;SDS011;38298;50.346;3.526;2023-08-06T07:05:39;5.43;;;1.90;;
52368;SDS011;38298;50.346;3.526;2023-08-06T07:08:05;8.38;;;2.20;;
52368;SDS011;38298;50.346;3.526;2023-08-06T07:10:31;10.88;;;2.00;;
52368;SDS011;38298;50.346;3.526;2023-08-06T07:12:57;6.35;;;1.65;;
52368;SDS011;38298;50.346;3.526;2023-08-06T07:15:23;6.25;;;1.88;;
52368;SDS011;38298;50.346;3.526;2023-08-06T07:17:49;3.38;;;1.60;;
52368;SDS011;38298;50.346;3.526;2023-08-06T07:20:15;9.27;;;1.90;;
52368;SDS011;38298;50.346;3.526;2023-08-06T07:22:41;8.73;;;1.80;;
52368;SDS011;38298;50.346;3.526;2023-08-06T07:25:07;5.47;;;2.20;;
52368;SDS011;38298;50.346;3.526;2023-08-06T07:27:34;4.55;;;2.00;;
52368;SDS011;38298;50.346;3.526;2023-08-06T07:30:00;6.80;;;2.17;;
52368;SDS011;38298;50.346;3.526;2023-08-06T07:32:26;7.15;;;1.98;;
52368;SDS011;38298;50.346;3.526;2023-08-06T07:34:53;8.30;;;1.98;;
52368;SDS011;38298;50.346;3.526;2023-08-06T07:37:24;13.95;;;2.20;;
52368;SDS011;38298;50.346;3.526;2023-08-06T07:39:50;5.45;;;1.70;;
52368;SDS011;38298;50.346;3.526;2023-08-06T07:42:16;4.43;;;1.80;;
52368;SDS011;38298;50.346;3.526;2023-08-06T07:44:45;4.45;;;1.75;;
52368;SDS011;38298;50.346;3.526;2023-08-06T07:47:15;5.43;;;1.58;;
52368;SDS011;38298;50.346;3.526;2023-08-06T07:49:41;7.60;;;1.38;;
52368;SDS011;38298;50.346;3.526;2023-08-06T07:52:07;5.63;;;1.67;;
52368;SDS011;38298;50.346;3.526;2023-08-06T07:54:33;9.05;;;2.13;;
52368;SDS011;38298;50.346;3.526;2023-08-06T07:56:59;6.97;;;1.50;;
52368;SDS011;38298;50.346;3.526;2023-08-06T07:59:25;5.03;;;1.60;;
52368;SDS011;38298;50.346;3.526;2023-08-06T08:01:51;3.72;;;1.80;;
52368;SDS011;38298;50.346;3.526;2023-08-06T08:04:17;2.67;;;1.52;;
52368;SDS011;38298;50.346;3.526;2023-08-06T08:06:43;4.93;;;1.83;;
52368;SDS011;38298;50.346;3.526;2023-08-06T08:09:09;6.72;;;2.00;;
52368;SDS011;38298;50.346;3.526;2023-08-06T08:11:35;6.97;;;2.45;;
52368;SDS011;38298;50.346;3.526;2023-08-06T08:14:01;5.78;;;1.85;;
52368;SDS011;38298;50.346;3.526;2023-08-06T08:16:27;8.18;;;2.20;;
52368;SDS011;38298;50.346;3.526;2023-08-06T08:18:53;4.28;;;1.60;;
52368;SDS011;38298;50.346;3.526;2023-08-06T08:21:19;4.10;;;1.83;;
52368;SDS011;38298;50.346;3.526;2023-08-06T08:23:45;4.32;;;1.95;;
52368;SDS011;38298;50.346;3.526;2023-08-06T08:26:11;8.48;;;2.03;;
52368;SDS011;38298;50.346;3.526;2023-08-06T08:28:37;7.50;;;2.00;;
52368;SDS011;38298;50.346;3.526;2023-08-06T08:31:03;5.35;;;1.75;;
52368;SDS011;38298;50.346;3.526;2023-08-06T08:33:33;8.27;;;2.33;;
52368;SDS011;38298;50.346;3.526;2023-08-06T08:35:59;8.10;;;1.65;;
52368;SDS011;38298;50.346;3.526;2023-08-06T08:38:25;3.83;;;1.90;;
52368;SDS011;38298;50.346;3.526;2023-08-06T08:40:52;8.52;;;1.70;;
52368;SDS011;38298;50.346;3.526;2023-08-06T08:43:22;3.50;;;1.50;;
52368;SDS011;38298;50.346;3.526;2023-08-06T08:45:49;5.55;;;1.77;;
52368;SDS011;38298;50.346;3.526;2023-08-06T08:48:16;5.20;;;1.60;;
52368;SDS011;38298;50.346;3.526;2023-08-06T08:50:44;7.35;;;1.15;;
52368;SDS011;38298;50.346;3.526;2023-08-06T08:53:10;4.78;;;1.20;;
52368;SDS011;38298;50.346;3.526;2023-08-06T08:55:37;5.78;;;1.77;;
52368;SDS011;38298;50.346;3.526;2023-08-06T08:58:03;5.95;;;1.65;;
52368;SDS011;38298;50.346;3.526;2023-08-06T09:00:29;7.10;;;1.25;;
52368;SDS011;38298;50.346;3.526;2023-08-06T09:02:55;12.40;;;2.03;;
52368;SDS011;38298;50.346;3.526;2023-08-06T09:05:22;3.33;;;1.38;;
52368;SDS011;38298;50.346;3.526;2023-08-06T09:07:49;2.85;;;1.42;;
52368;SDS011;38298;50.346;3.526;2023-08-06T09:10:17;5.05;;;1.48;;
52368;SDS011;38298;50.346;3.526;2023-08-06T09:12:44;4.57;;;1.65;;
52368;SDS011;38298;50.346;3.526;2023-08-06T09:15:10;10.45;;;1.63;;
52368;SDS011;38298;50.346;3.526;2023-08-06T09:17:36;2.65;;;1.42;;
52368;SDS011;38298;50.346;3.526;2023-08-06T09:20:10;8.48;;;1.77;;
52368;SDS011;38298;50.346;3.526;2023-08-06T09:22:36;6.85;;;1.63;;
52368;SDS011;38298;50.346;3.526;2023-08-06T09:25:02;5.53;;;1.50;;
52368;SDS011;38298;50.346;3.526;2023-08-06T09:27:29;5.90;;;1.45;;
52368;SDS011;38298;50.346;3.526;2023-08-06T09:29:55;4.50;;;1.42;;
52368;SDS011;38298;50.346;3.526;2023-08-06T09:32:21;7.40;;;1.48;;
52368;SDS011;38298;50.346;3.526;2023-08-06T09:34:47;4.70;;;1.33;;
52368;SDS011;38298;50.346;3.526;2023-08-06T09:37:20;4.20;;;1.83;;
52368;SDS011;38298;50.346;3.526;2023-08-06T09:39:47;9.00;;;1.55;;
52368;SDS011;38298;50.346;3.526;2023-08-06T09:42:14;7.50;;;1.40;;
52368;SDS011;38298;50.346;3.526;2023-08-06T09:44:40;6.13;;;1.98;;
52368;SDS011;38298;50.346;3.526;2023-08-06T09:47:06;5.18;;;1.27;;
52368;SDS011;38298;50.346;3.526;2023-08-06T09:51:59;5.00;;;1.30;;
52368;SDS011;38298;50.346;3.526;2023-08-06T09:54:26;5.47;;;1.50;;
52368;SDS011;38298;50.346;3.526;2023-08-06T09:56:53;8.68;;;1.40;;
52368;SDS011;38298;50.346;3.526;2023-08-06T09:59:19;7.90;;;1.42;;
52368;SDS011;38298;50.346;3.526;2023-08-06T10:01:45;4.57;;;1.40;;
52368;SDS011;38298;50.346;3.526;2023-08-06T10:04:12;6.45;;;1.15;;
52368;SDS011;38298;50.346;3.526;2023-08-06T10:06:41;6.18;;;1.13;;
52368;SDS011;38298;50.346;3.526;2023-08-06T10:09:07;4.07;;;1.23;;
52368;SDS011;38298;50.346;3.526;2023-08-06T10:11:34;3.20;;;1.10;;
52368;SDS011;38298;50.346;3.526;2023-08-06T10:14:25;7.07;;;1.02;;
52368;SDS011;38298;50.346;3.526;2023-08-06T10:16:48;7.20;;;1.25;;
52368;SDS011;38298;50.346;3.526;2023-08-06T10:19:15;2.90;;;1.20;;
52368;SDS011;38298;50.346;3.526;2023-08-06T10:21:41;3.42;;;1.23;;
52368;SDS011;38298;50.346;3.526;2023-08-06T10:24:07;4.80;;;1.05;;
52368;SDS011;38298;50.346;3.526;2023-08-06T10:26:36;6.10;;;1.35;;
52368;SDS011;38298;50.346;3.526;2023-08-06T10:29:47;10.35;;;1.40;;
52368;SDS011;38298;50.346;3.526;2023-08-06T10:31:55;8.45;;;1.30;;
52368;SDS011;38298;50.346;3.526;2023-08-06T10:34:21;2.95;;;1.65;;
52368;SDS011;38298;50.346;3.526;2023-08-06T10:36:47;3.72;;;1.20;;
52368;SDS011;38298;50.346;3.526;2023-08-06T10:39:13;7.32;;;1.20;;
52368;SDS011;38298;50.346;3.526;2023-08-06T10:41:40;6.57;;;1.30;;
52368;SDS011;38298;50.346;3.526;2023-08-06T10:44:08;3.22;;;1.15;;
52368;SDS011;38298;50.346;3.526;2023-08-06T10:46:34;7.80;;;1.48;;
52368;SDS011;38298;50.346;3.526;2023-08-06T10:49:01;4.50;;;1.30;;
52368;SDS011;38298;50.346;3.526;2023-08-06T10:51:27;4.22;;;1.35;;
52368;SDS011;38298;50.346;3.526;2023-08-06T10:53:53;2.53;;;1.08;;
52368;SDS011;38298;50.346;3.526;2023-08-06T10:56:20;7.85;;;1.35;;
52368;SDS011;38298;50.346;3.526;2023-08-06T10:58:55;11.60;;;2.20;;
52368;SDS011;38298;50.346;3.526;2023-08-06T11:01:22;3.63;;;1.38;;
52368;SDS011;38298;50.346;3.526;2023-08-06T11:03:48;4.57;;;1.85;;
52368;SDS011;38298;50.346;3.526;2023-08-06T11:06:19;8.10;;;1.25;;
52368;SDS011;38298;50.346;3.526;2023-08-06T11:08:49;3.00;;;1.00;;
52368;SDS011;38298;50.346;3.526;2023-08-06T11:11:15;5.20;;;1.30;;
52368;SDS011;38298;50.346;3.526;2023-08-06T11:13:42;9.50;;;1.10;;
52368;SDS011;38298;50.346;3.526;2023-08-06T11:16:09;3.28;;;1.05;;
52368;SDS011;38298;50.346;3.526;2023-08-06T11:18:36;5.30;;;1.13;;
52368;SDS011;38298;50.346;3.526;2023-08-06T11:21:02;3.75;;;1.60;;
52368;SDS011;38298;50.346;3.526;2023-08-06T11:23:28;8.98;;;1.50;;
52368;SDS011;38298;50.346;3.526;2023-08-06T11:25:54;8.90;;;1.50;;
52368;SDS011;38298;50.346;3.526;2023-08-06T11:28:20;5.72;;;1.30;;
52368;SDS011;38298;50.346;3.526;2023-08-06T11:30:47;3.05;;;1.10;;
52368;SDS011;38298;50.346;3.526;2023-08-06T11:33:13;5.65;;;1.35;;
52368;SDS011;38298;50.346;3.526;2023-08-06T11:35:39;5.97;;;1.30;;
52368;SDS011;38298;50.346;3.526;2023-08-06T11:38:05;4.13;;;1.50;;
52368;SDS011;38298;50.346;3.526;2023-08-06T11:40:32;4.13;;;1.23;;
52368;SDS011;38298;50.346;3.526;2023-08-06T11:42:58;4.25;;;1.27;;
52368;SDS011;38298;50.346;3.526;2023-08-06T11:45:24;5.07;;;1.65;;
52368;SDS011;38298;50.346;3.526;2023-08-06T11:47:51;3.50;;;1.40;;
52368;SDS011;38298;50.346;3.526;2023-08-06T11:50:24;4.20;;;1.10;;
52368;SDS011;38298;50.346;3.526;2023-08-06T11:52:56;2.72;;;1.23;;
52368;SDS011;38298;50.346;3.526;2023-08-06T11:55:23;6.47;;;1.50;;
52368;SDS011;38298;50.346;3.526;2023-08-06T11:57:49;8.65;;;0.93;;
52368;SDS011;38298;50.346;3.526;2023-08-06T12:00:15;2.75;;;0.90;;
52368;SDS011;38298;50.346;3.526;2023-08-06T12:02:47;4.07;;;1.00;;
52368;SDS011;38298;50.346;3.526;2023-08-06T12:05:18;2.80;;;1.27;;
52368;SDS011;38298;50.346;3.526;2023-08-06T12:07:51;3.22;;;1.10;;
52368;SDS011;38298;50.346;3.526;2023-08-06T12:10:17;5.15;;;1.35;;
52368;SDS011;38298;50.346;3.526;2023-08-06T12:12:47;5.80;;;1.33;;
52368;SDS011;38298;50.346;3.526;2023-08-06T12:15:13;4.97;;;1.15;;
52368;SDS011;38298;50.346;3.526;2023-08-06T12:17:39;3.78;;;0.98;;
52368;SDS011;38298;50.346;3.526;2023-08-06T12:20:05;4.97;;;0.98;;
52368;SDS011;38298;50.346;3.526;2023-08-06T12:22:32;4.80;;;1.27;;
52368;SDS011;38298;50.346;3.526;2023-08-06T12:25:03;2.20;;;0.90;;
52368;SDS011;38298;50.346;3.526;2023-08-06T12:27:32;4.15;;;0.90;;
52368;SDS011;38298;50.346;3.526;2023-08-06T12:29:58;1.50;;;0.95;;
52368;SDS011;38298;50.346;3.526;2023-08-06T12:32:25;3.75;;;1.05;;
52368;SDS011;38298;50.346;3.526;2023-08-06T12:34:51;3.30;;;0.80;;
52368;SDS011;38298;50.346;3.526;2023-08-06T12:37:17;2.60;;;0.90;;
52368;SDS011;38298;50.346;3.526;2023-08-06T12:39:43;3.35;;;1.17;;
52368;SDS011;38298;50.346;3.526;2023-08-06T12:42:09;3.38;;;1.05;;
52368;SDS011;38298;50.346;3.526;2023-08-06T12:44:35;7.07;;;1.55;;
52368;SDS011;38298;50.346;3.526;2023-08-06T12:47:01;3.53;;;1.20;;
52368;SDS011;38298;50.346;3.526;2023-08-06T12:49:27;2.20;;;0.90;;
52368;SDS011;38298;50.346;3.526;2023-08-06T12:51:54;2.92;;;0.88;;
52368;SDS011;38298;50.346;3.526;2023-08-06T12:54:21;1.92;;;1.00;;
52368;SDS011;38298;50.346;3.526;2023-08-06T12:56:48;2.13;;;0.70;;
52368;SDS011;38298;50.346;3.526;2023-08-06T12:59:15;4.72;;;0.77;;
52368;SDS011;38298;50.346;3.526;2023-08-06T13:01:42;4.10;;;0.90;;
52368;SDS011;38298;50.346;3.526;2023-08-06T13:04:08;3.55;;;0.95;;
52368;SDS011;38298;50.346;3.526;2023-08-06T13:06:34;3.70;;;0.70;;
52368;SDS011;38298;50.346;3.526;2023-08-06T13:09:05;4.35;;;1.08;;
52368;SDS011;38298;50.346;3.526;2023-08-06T13:11:32;3.33;;;0.90;;
52368;SDS011;38298;50.346;3.526;2023-08-06T13:14:05;3.40;;;0.75;;
52368;SDS011;38298;50.346;3.526;2023-08-06T13:16:32;4.18;;;0.68;;
52368;SDS011;38298;50.346;3.526;2023-08-06T13:18:58;1.38;;;0.50;;
52368;SDS011;38298;50.346;3.526;2023-08-06T13:21:24;2.50;;;0.90;;
52368;SDS011;38298;50.346;3.526;2023-08-06T13:23:50;5.10;;;1.23;;
52368;SDS011;38298;50.346;3.526;2023-08-06T13:26:17;2.78;;;0.60;;
52368;SDS011;38298;50.346;3.526;2023-08-06T13:28:43;3.03;;;0.60;;
52368;SDS011;38298;50.346;3.526;2023-08-06T13:31:09;3.45;;;0.75;;
52368;SDS011;38298;50.346;3.526;2023-08-06T13:33:35;0.93;;;0.55;;
52368;SDS011;38298;50.346;3.526;2023-08-06T13:36:01;3.97;;;0.82;;
52368;SDS011;38298;50.346;3.526;2023-08-06T13:38:27;5.25;;;0.98;;
52368;SDS011;38298;50.346;3.526;2023-08-06T13:40:53;0.80;;;0.47;;
52368;SDS011;38298;50.346;3.526;2023-08-06T13:43:19;3.63;;;0.65;;
52368;SDS011;38298;50.346;3.526;2023-08-06T13:45:45;3.53;;;0.50;;
52368;SDS011;38298;50.346;3.526;2023-08-06T13:48:11;3.42;;;0.60;;
52368;SDS011;38298;50.346;3.526;2023-08-06T13:50:37;2.42;;;0.90;;
52368;SDS011;38298;50.346;3.526;2023-08-06T13:53:03;1.75;;;0.57;;
52368;SDS011;38298;50.346;3.526;2023-08-06T13:55:29;2.08;;;0.60;;
52368;SDS011;38298;50.346;3.526;2023-08-06T13:57:55;1.70;;;0.52;;
52368;SDS011;38298;50.346;3.526;2023-08-06T14:00:21;2.40;;;0.80;;
52368;SDS011;38298;50.346;3.526;2023-08-06T14:02:47;2.88;;;0.70;;
52368;SDS011;38298;50.346;3.526;2023-08-06T14:05:13;2.00;;;0.95;;
52368;SDS011;38298;50.346;3.526;2023-08-06T14:07:40;0.80;;;0.40;;
52368;SDS011;38298;50.346;3.526;2023-08-06T14:10:06;4.85;;;0.50;;
52368;SDS011;38298;50.346;3.526;2023-08-06T14:12:34;2.35;;;0.77;;
52368;SDS011;38298;50.346;3.526;2023-08-06T14:15:00;2.97;;;0.88;;
52368;SDS011;38298;50.346;3.526;2023-08-06T14:17:28;5.93;;;0.60;;
52368;SDS011;38298;50.346;3.526;2023-08-06T14:19:53;2.15;;;0.60;;
52368;SDS011;38298;50.346;3.526;2023-08-06T14:22:19;3.70;;;0.73;;
52368;SDS011;38298;50.346;3.526;2023-08-06T14:24:45;4.07;;;0.70;;
52368;SDS011;38298;50.346;3.526;2023-08-06T14:27:12;4.03;;;1.17;;
52368;SDS011;38298;50.346;3.526;2023-08-06T14:29:38;3.65;;;0.75;;
52368;SDS011;38298;50.346;3.526;2023-08-06T14:32:04;2.88;;;0.98;;
52368;SDS011;38298;50.346;3.526;2023-08-06T14:34:30;2.75;;;0.73;;
52368;SDS011;38298;50.346;3.526;2023-08-06T14:36:56;3.90;;;0.98;;
52368;SDS011;38298;50.346;3.526;2023-08-06T14:39:24;3.17;;;0.80;;
52368;SDS011;38298;50.346;3.526;2023-08-06T14:41:50;3.72;;;0.68;;
52368;SDS011;38298;50.346;3.526;2023-08-06T14:44:16;1.75;;;0.63;;
52368;SDS011;38298;50.346;3.526;2023-08-06T14:46:42;6.30;;;0.85;;
52368;SDS011;38298;50.346;3.526;2023-08-06T14:49:08;1.30;;;0.63;;